createdAt,value
2017-08-24T00:01:41.149Z,9.00
2017-08-24T00:04:08.737Z,8.17
2017-08-24T00:06:36.198Z,9.20
2017-08-24T00:09:03.652Z,10.70
2017-08-24T00:11:31.140Z,14.00
2017-08-24T00:13:58.596Z,8.70
2017-08-24T00:16:26.104Z,7.17
2017-08-24T00:18:53.582Z,9.70
2017-08-24T00:21:21.062Z,8.07
2017-08-24T00:23:48.556Z,9.10
2017-08-24T00:26:16.046Z,7.53
2017-08-24T00:28:43.510Z,8.40
2017-08-24T00:31:11.011Z,7.10
2017-08-24T00:33:38.507Z,8.13
2017-08-24T00:36:05.963Z,8.67
2017-08-24T00:38:33.462Z,7.00
2017-08-24T00:41:01.622Z,7.00
2017-08-24T00:43:29.095Z,7.17
2017-08-24T00:45:56.601Z,10.30
2017-08-24T00:48:24.099Z,7.45
2017-08-24T00:50:51.577Z,7.87
2017-08-24T00:53:19.100Z,22.83
2017-08-24T00:55:46.586Z,10.47
2017-08-24T00:58:14.069Z,6.97
2017-08-24T01:00:41.554Z,12.13
2017-08-24T01:03:09.062Z,8.45
2017-08-24T01:05:36.525Z,10.67
2017-08-24T01:08:04.019Z,9.37
2017-08-24T01:10:31.493Z,8.67
2017-08-24T01:12:58.968Z,8.05
2017-08-24T01:15:26.464Z,8.10
2017-08-24T01:17:53.950Z,11.67
2017-08-24T01:20:21.426Z,9.73
2017-08-24T01:22:48.920Z,8.27
2017-08-24T01:25:16.433Z,11.88
2017-08-24T01:27:43.937Z,13.67
2017-08-24T01:30:11.430Z,41.83
2017-08-24T01:32:38.924Z,36.73
2017-08-24T01:35:06.421Z,27.13
2017-08-24T01:37:34.312Z,20.43
2017-08-24T01:40:01.782Z,17.30
2017-08-24T01:42:29.237Z,11.93
2017-08-24T01:44:56.735Z,12.87
2017-08-24T01:47:24.996Z,10.33
2017-08-24T01:49:52.520Z,12.90
2017-08-24T01:52:19.993Z,15.65
2017-08-24T01:54:47.473Z,12.53
2017-08-24T01:57:14.940Z,23.52
2017-08-24T01:59:42.466Z,20.20
2017-08-24T02:02:09.948Z,42.06
2017-08-24T02:04:37.415Z,51.63
2017-08-24T02:07:06.368Z,45.57
2017-08-24T02:09:33.853Z,38.33
2017-08-24T02:12:01.333Z,25.03
2017-08-24T02:14:28.782Z,15.87
2017-08-24T02:16:56.289Z,14.10
2017-08-24T02:19:23.760Z,12.52
2017-08-24T02:21:51.256Z,17.87
2017-08-24T02:24:18.718Z,8.43
2017-08-24T02:26:46.231Z,12.82
2017-08-24T02:29:13.706Z,11.82
2017-08-24T02:31:41.185Z,8.97
2017-08-24T02:34:08.675Z,7.50
2017-08-24T02:36:36.161Z,7.80
2017-08-24T02:39:03.641Z,8.70
2017-08-24T02:41:31.160Z,10.80
2017-08-24T02:43:58.669Z,7.40
2017-08-24T02:46:26.160Z,10.10
2017-08-24T02:48:53.671Z,7.40
2017-08-24T02:51:21.125Z,7.27
2017-08-24T02:53:48.612Z,9.80
2017-08-24T02:56:16.081Z,11.80
2017-08-24T02:58:43.578Z,9.80
2017-08-24T03:01:11.043Z,7.87
2017-08-24T03:03:38.652Z,10.83
2017-08-24T03:06:06.113Z,9.80
2017-08-24T03:08:33.572Z,9.07
2017-08-24T03:11:01.087Z,7.80
2017-08-24T03:13:28.552Z,10.30
2017-08-24T03:15:56.038Z,10.90
2017-08-24T03:18:23.502Z,17.00
2017-08-24T03:20:50.989Z,15.43
2017-08-24T03:23:18.543Z,13.93
2017-08-24T03:25:46.034Z,10.83
2017-08-24T03:28:13.513Z,12.63
2017-08-24T03:30:41.017Z,9.83
2017-08-24T03:33:08.473Z,13.33
2017-08-24T03:35:36.312Z,15.47
2017-08-24T03:38:03.787Z,10.77
2017-08-24T03:40:31.566Z,15.50
2017-08-24T03:42:59.052Z,12.67
2017-08-24T03:45:26.568Z,12.63
2017-08-24T03:47:54.064Z,11.20
2017-08-24T03:50:21.545Z,13.13
2017-08-24T03:52:49.055Z,12.00
2017-08-24T03:55:16.509Z,17.37
2017-08-24T03:57:44.003Z,12.77
2017-08-24T04:00:11.495Z,18.60
2017-08-24T04:02:38.998Z,13.50
2017-08-24T04:05:06.474Z,15.65
2017-08-24T04:07:33.984Z,12.73
2017-08-24T04:10:01.664Z,11.60
2017-08-24T04:12:29.189Z,13.27
2017-08-24T04:14:56.746Z,21.30
2017-08-24T04:17:24.237Z,14.33
2017-08-24T04:19:51.744Z,22.30
2017-08-24T04:22:19.227Z,15.23
2017-08-24T04:24:46.736Z,16.30
2017-08-24T04:27:14.203Z,16.80
2017-08-24T04:29:41.688Z,20.97
2017-08-24T04:32:09.157Z,18.90
2017-08-24T04:34:36.662Z,16.40
2017-08-24T04:37:05.442Z,21.34
2017-08-24T04:39:32.980Z,22.37
2017-08-24T04:42:00.460Z,15.80
2017-08-24T04:44:27.993Z,14.77
2017-08-24T04:46:55.485Z,20.33
2017-08-24T04:49:22.982Z,19.10
2017-08-24T04:51:50.444Z,26.77
2017-08-24T04:54:18.060Z,19.45
2017-08-24T04:56:45.547Z,16.53
2017-08-24T04:59:13.056Z,17.40
2017-08-24T05:01:40.573Z,19.27
2017-08-24T05:04:08.090Z,24.33
2017-08-24T05:06:35.628Z,22.70
2017-08-24T05:09:03.112Z,20.53
2017-08-24T05:11:30.633Z,15.53
2017-08-24T05:13:58.092Z,13.20
2017-08-24T05:16:25.592Z,30.77
2017-08-24T05:18:53.087Z,18.57
2017-08-24T05:21:20.538Z,13.63
2017-08-24T05:23:48.301Z,15.97
2017-08-24T05:26:15.789Z,11.55
2017-08-24T05:28:43.271Z,11.67
2017-08-24T05:31:10.771Z,13.70
2017-08-24T05:33:38.297Z,11.50
2017-08-24T05:36:06.115Z,9.43
2017-08-24T05:38:35.481Z,12.13
2017-08-24T05:41:03.010Z,11.50
2017-08-24T05:43:30.514Z,9.90
2017-08-24T05:45:58.002Z,11.00
2017-08-24T05:48:25.464Z,16.23
2017-08-24T05:50:52.953Z,9.30
2017-08-24T05:53:20.416Z,10.85
2017-08-24T05:55:47.982Z,12.97
2017-08-24T05:58:15.497Z,13.70
2017-08-24T06:00:42.974Z,9.90
2017-08-24T06:03:10.469Z,13.45
2017-08-24T06:05:37.970Z,13.77
2017-08-24T06:08:05.480Z,11.45
2017-08-24T06:10:32.986Z,13.95
2017-08-24T06:13:00.553Z,13.73
2017-08-24T06:15:28.033Z,11.93
2017-08-24T06:17:55.555Z,12.37
2017-08-24T06:20:23.094Z,10.67
2017-08-24T06:22:50.587Z,6.70
2017-08-24T06:25:18.088Z,9.73
2017-08-24T06:27:45.584Z,8.07
2017-08-24T06:30:13.074Z,6.60
2017-08-24T06:32:41.040Z,11.70
2017-08-24T06:35:08.545Z,11.00
2017-08-24T06:37:36.072Z,7.60
2017-08-24T06:40:03.604Z,7.23
2017-08-24T06:42:31.129Z,7.87
2017-08-24T06:44:58.628Z,8.07
2017-08-24T06:47:26.094Z,8.53
2017-08-24T06:49:53.609Z,7.43
2017-08-24T06:52:21.060Z,7.25
2017-08-24T06:54:48.876Z,9.70
2017-08-24T06:57:16.379Z,8.23
2017-08-24T06:59:43.899Z,7.53
2017-08-24T07:02:11.402Z,5.57
2017-08-24T07:04:38.892Z,7.23
2017-08-24T07:07:06.341Z,5.60
2017-08-24T07:09:33.862Z,6.53
2017-08-24T07:12:01.354Z,4.30
2017-08-24T07:14:28.805Z,4.53
2017-08-24T07:16:56.284Z,5.07
2017-08-24T07:19:23.752Z,7.00
2017-08-24T07:21:51.262Z,7.83
2017-08-24T07:24:18.719Z,6.67
2017-08-24T07:26:46.255Z,6.83
2017-08-24T07:29:14.182Z,6.87
2017-08-24T07:31:41.671Z,5.80
2017-08-24T07:34:09.147Z,5.53
2017-08-24T07:36:36.783Z,8.07
2017-08-24T07:39:04.252Z,3.57
2017-08-24T07:41:31.829Z,7.60
2017-08-24T07:43:59.313Z,4.43
2017-08-24T07:46:26.803Z,5.93
2017-08-24T07:48:54.349Z,3.93
2017-08-24T07:51:21.810Z,4.00
2017-08-24T07:53:49.445Z,5.12
2017-08-24T07:56:17.167Z,4.07
2017-08-24T07:58:44.710Z,4.90
2017-08-24T08:01:13.251Z,2.97
2017-08-24T08:03:40.882Z,3.87
2017-08-24T08:06:08.342Z,3.03
2017-08-24T08:08:35.815Z,8.97
2017-08-24T08:11:03.293Z,3.67
2017-08-24T08:13:30.836Z,2.80
2017-08-24T08:15:58.338Z,3.00
2017-08-24T08:18:25.893Z,3.23
2017-08-24T08:20:53.431Z,5.57
2017-08-24T08:23:20.921Z,4.97
2017-08-24T08:25:48.414Z,2.80
2017-08-24T08:28:15.995Z,3.10
2017-08-24T08:30:43.479Z,8.40
2017-08-24T08:33:11.015Z,2.90
2017-08-24T08:35:38.522Z,2.10
2017-08-24T08:38:06.036Z,1.40
2017-08-24T08:40:33.523Z,2.60
2017-08-24T08:43:01.031Z,1.70
2017-08-24T08:45:28.509Z,3.07
2017-08-24T08:47:55.998Z,1.90
2017-08-24T08:50:23.449Z,2.47
2017-08-24T08:52:51.185Z,1.53
2017-08-24T08:55:18.645Z,1.70
2017-08-24T08:57:46.137Z,1.50
2017-08-24T09:00:13.655Z,2.90
2017-08-24T09:02:41.141Z,2.90
2017-08-24T09:05:08.685Z,3.00
2017-08-24T09:07:36.164Z,3.40
2017-08-24T09:10:03.672Z,5.03
2017-08-24T09:12:31.181Z,3.63
2017-08-24T09:14:58.918Z,2.33
2017-08-24T09:17:26.386Z,1.40
2017-08-24T09:19:53.941Z,3.10
2017-08-24T09:22:21.432Z,3.25
2017-08-24T09:24:48.957Z,2.10
2017-08-24T09:27:16.436Z,2.05
2017-08-24T09:29:43.933Z,5.80
2017-08-24T09:32:11.411Z,5.95
2017-08-24T09:34:38.861Z,4.03
2017-08-24T09:37:06.340Z,1.63
2017-08-24T09:39:34.133Z,3.00
2017-08-24T09:42:01.642Z,2.80
2017-08-24T09:44:29.140Z,1.80
2017-08-24T09:46:56.636Z,1.70
2017-08-24T09:49:24.195Z,3.03
2017-08-24T09:51:52.702Z,1.83
2017-08-24T09:54:20.211Z,4.13
2017-08-24T09:56:47.702Z,2.27
2017-08-24T09:59:15.272Z,2.20
2017-08-24T10:01:42.772Z,1.57
2017-08-24T10:04:10.985Z,1.57
2017-08-24T10:06:38.455Z,4.00
2017-08-24T10:09:06.722Z,1.53
2017-08-24T10:11:34.236Z,4.17
2017-08-24T10:14:01.770Z,1.60
2017-08-24T10:16:29.241Z,4.28
2017-08-24T10:18:56.739Z,5.73
2017-08-24T10:21:24.225Z,1.60
2017-08-24T10:23:51.723Z,1.97
2017-08-24T10:26:19.202Z,3.03
2017-08-24T10:28:46.739Z,2.40
2017-08-24T10:31:14.177Z,2.20
2017-08-24T10:33:41.625Z,2.47
2017-08-24T10:36:09.132Z,2.53
2017-08-24T10:38:37.559Z,1.87
2017-08-24T10:41:05.412Z,2.23
2017-08-24T10:43:32.891Z,1.80
2017-08-24T10:46:00.431Z,1.70
2017-08-24T10:48:27.924Z,2.50
2017-08-24T10:50:55.457Z,2.10
2017-08-24T10:53:22.950Z,4.85
2017-08-24T10:55:50.546Z,3.40
2017-08-24T10:58:18.035Z,4.43
2017-08-24T11:00:45.488Z,2.60
2017-08-24T11:03:12.986Z,2.28
2017-08-24T11:05:40.451Z,7.00
2017-08-24T11:08:07.939Z,3.10
2017-08-24T11:10:35.417Z,1.70
2017-08-24T11:13:02.919Z,1.93
2017-08-24T11:15:30.420Z,4.73
2017-08-24T11:17:57.903Z,3.30
2017-08-24T11:20:25.451Z,4.40
2017-08-24T11:22:52.926Z,3.97
2017-08-24T11:25:20.925Z,2.00
2017-08-24T11:27:48.455Z,6.67
2017-08-24T11:30:15.970Z,4.90
2017-08-24T11:32:43.445Z,2.73
2017-08-24T11:35:10.976Z,1.85
2017-08-24T11:37:38.507Z,3.00
2017-08-24T11:40:06.037Z,1.50
2017-08-24T11:42:33.532Z,2.20
2017-08-24T11:45:01.131Z,1.80
2017-08-24T11:47:28.517Z,4.40
2017-08-24T11:49:56.039Z,1.90
2017-08-24T11:52:24.448Z,3.40
2017-08-24T11:54:52.075Z,2.07
2017-08-24T11:57:19.569Z,3.28
2017-08-24T11:59:47.104Z,1.60
2017-08-24T12:02:14.641Z,2.67
2017-08-24T12:04:42.110Z,2.13
2017-08-24T12:07:09.599Z,2.37
2017-08-24T12:09:37.105Z,1.57
2017-08-24T12:12:05.146Z,2.33
2017-08-24T12:14:32.621Z,3.53
2017-08-24T12:17:00.150Z,2.83
2017-08-24T12:19:27.614Z,1.83
2017-08-24T12:21:55.098Z,1.83
2017-08-24T12:24:22.612Z,3.05
2017-08-24T12:26:50.067Z,2.23
2017-08-24T12:29:17.546Z,2.92
2017-08-24T12:31:45.047Z,3.80
2017-08-24T12:34:12.729Z,3.47
2017-08-24T12:36:40.222Z,3.70
2017-08-24T12:39:08.163Z,4.73
2017-08-24T12:41:35.727Z,1.73
2017-08-24T12:44:06.367Z,2.10
2017-08-24T12:46:33.916Z,4.53
2017-08-24T12:49:01.432Z,12.03
2017-08-24T12:51:28.876Z,3.10
2017-08-24T12:53:56.745Z,2.13
2017-08-24T12:56:24.249Z,6.23
2017-08-24T12:58:51.728Z,2.37
2017-08-24T13:01:19.214Z,1.40
2017-08-24T13:03:46.668Z,4.20
2017-08-24T13:06:14.215Z,4.03
2017-08-24T13:08:41.744Z,1.80
2017-08-24T13:11:09.687Z,1.92
2017-08-24T13:13:37.192Z,2.57
2017-08-24T13:16:05.379Z,1.30
2017-08-24T13:18:33.637Z,4.13
2017-08-24T13:21:01.151Z,2.90
2017-08-24T13:23:28.707Z,3.37
2017-08-24T13:25:56.196Z,4.53
2017-08-24T13:28:24.370Z,4.13
2017-08-24T13:30:51.844Z,2.97
2017-08-24T13:33:19.382Z,6.75
2017-08-24T13:35:46.864Z,4.80
2017-08-24T13:38:14.446Z,2.75
2017-08-24T13:40:41.995Z,2.10
2017-08-24T13:43:09.487Z,2.67
2017-08-24T13:45:37.012Z,2.93
2017-08-24T13:48:04.890Z,2.03
2017-08-24T13:50:32.402Z,5.93
2017-08-24T13:52:59.883Z,2.77
2017-08-24T13:55:27.666Z,10.73
2017-08-24T13:57:55.152Z,3.53
2017-08-24T14:00:22.646Z,2.05
2017-08-24T14:02:50.213Z,2.10
2017-08-24T14:05:17.730Z,3.73
2017-08-24T14:07:45.188Z,4.00
2017-08-24T14:10:12.689Z,2.20
2017-08-24T14:12:40.214Z,5.13
2017-08-24T14:15:07.814Z,3.77
2017-08-24T14:17:35.315Z,3.73
2017-08-24T14:20:02.805Z,4.07
2017-08-24T14:22:30.326Z,4.07
2017-08-24T14:24:57.827Z,2.27
2017-08-24T14:27:25.341Z,2.30
2017-08-24T14:29:52.813Z,4.10
2017-08-24T14:32:20.362Z,3.10
2017-08-24T14:34:47.821Z,2.13
2017-08-24T14:37:16.180Z,6.83
2017-08-24T14:39:43.788Z,7.40
2017-08-24T14:42:11.322Z,2.90
2017-08-24T14:44:39.383Z,3.27
2017-08-24T14:47:06.900Z,2.17
2017-08-24T14:49:34.410Z,2.67
2017-08-24T14:52:01.902Z,3.77
2017-08-24T14:54:29.451Z,4.13
2017-08-24T14:56:57.665Z,3.40
2017-08-24T14:59:26.088Z,7.27
2017-08-24T15:01:54.457Z,3.10
2017-08-24T15:04:21.949Z,5.37
2017-08-24T15:06:50.625Z,1.70
2017-08-24T15:09:18.098Z,3.80
2017-08-24T15:11:47.654Z,1.77
2017-08-24T15:14:15.178Z,4.40
2017-08-24T15:16:42.669Z,2.20
2017-08-24T15:19:10.277Z,3.97
2017-08-24T15:21:37.809Z,5.53
2017-08-24T15:24:05.659Z,3.03
2017-08-24T15:26:33.215Z,4.95
2017-08-24T15:29:01.230Z,7.80
2017-08-24T15:31:29.108Z,5.27
2017-08-24T15:33:56.569Z,4.40
2017-08-24T15:36:24.888Z,4.83
2017-08-24T15:38:52.378Z,6.57
2017-08-24T15:41:19.891Z,5.93
2017-08-24T15:43:47.366Z,2.10
2017-08-24T15:46:14.890Z,3.55
2017-08-24T15:48:42.381Z,2.57
2017-08-24T15:51:09.866Z,7.10
2017-08-24T15:53:37.425Z,21.03
2017-08-24T15:56:05.743Z,7.25
2017-08-24T15:58:33.262Z,3.35
2017-08-24T16:01:00.717Z,4.73
2017-08-24T16:03:28.235Z,5.77
2017-08-24T16:05:56.017Z,1.87
2017-08-24T16:08:23.703Z,2.90
2017-08-24T16:10:52.229Z,8.50
2017-08-24T16:13:19.855Z,4.23
2017-08-24T16:15:47.351Z,6.50
2017-08-24T16:18:14.849Z,4.18
2017-08-24T16:20:42.337Z,3.90
2017-08-24T16:23:09.819Z,3.87
2017-08-24T16:25:37.302Z,2.30
2017-08-24T16:28:04.920Z,6.60
2017-08-24T16:30:32.428Z,6.10
2017-08-24T16:32:59.895Z,2.55
2017-08-24T16:35:27.379Z,6.43
2017-08-24T16:37:58.265Z,7.10
2017-08-24T16:40:26.560Z,5.03
2017-08-24T16:42:54.086Z,4.63
2017-08-24T16:45:21.585Z,5.73
2017-08-24T16:47:49.069Z,6.93
2017-08-24T16:50:16.652Z,4.00
2017-08-24T16:52:44.129Z,4.30
2017-08-24T16:55:11.764Z,5.00
2017-08-24T16:57:39.322Z,4.00
2017-08-24T17:00:06.790Z,2.43
2017-08-24T17:02:34.293Z,4.20
2017-08-24T17:05:01.745Z,3.10
2017-08-24T17:07:29.222Z,5.63
2017-08-24T17:09:56.724Z,4.80
2017-08-24T17:12:24.204Z,3.90
2017-08-24T17:14:51.695Z,3.80
2017-08-24T17:17:19.150Z,3.72
2017-08-24T17:19:46.627Z,5.33
2017-08-24T17:22:14.140Z,6.45
2017-08-24T17:24:41.635Z,3.77
2017-08-24T17:27:09.505Z,5.70
2017-08-24T17:29:36.990Z,7.53
2017-08-24T17:32:04.861Z,11.93
2017-08-24T17:34:32.361Z,6.57
2017-08-24T17:36:59.820Z,5.00
2017-08-24T17:39:27.311Z,5.20
2017-08-24T17:41:54.833Z,7.80
2017-08-24T17:44:22.334Z,3.72
2017-08-24T17:46:49.801Z,5.57
2017-08-24T17:49:17.316Z,4.50
2017-08-24T17:51:44.769Z,6.63
2017-08-24T17:54:12.233Z,5.75
2017-08-24T17:56:39.733Z,7.83
2017-08-24T17:59:07.212Z,7.90
2017-08-24T18:01:34.724Z,6.07
2017-08-24T18:04:03.179Z,3.50
2017-08-24T18:06:30.681Z,2.40
2017-08-24T18:08:58.160Z,3.90
2017-08-24T18:11:25.644Z,10.70
2017-08-24T18:13:53.089Z,4.87
2017-08-24T18:16:20.581Z,3.43
2017-08-24T18:18:48.047Z,5.00
2017-08-24T18:21:15.816Z,9.10
2017-08-24T18:23:43.286Z,3.92
2017-08-24T18:26:10.743Z,5.40
2017-08-24T18:28:38.234Z,6.80
2017-08-24T18:31:05.686Z,8.30
2017-08-24T18:33:33.175Z,7.47
2017-08-24T18:36:00.642Z,8.23
2017-08-24T18:38:28.136Z,6.80
2017-08-24T18:40:55.634Z,3.20
2017-08-24T18:43:23.662Z,4.07
2017-08-24T18:45:51.127Z,4.83
2017-08-24T18:48:18.621Z,3.25
2017-08-24T18:50:46.094Z,3.83
2017-08-24T18:53:13.542Z,2.50
2017-08-24T18:55:41.129Z,6.97
2017-08-24T18:58:08.591Z,6.17
2017-08-24T19:00:36.183Z,5.33
2017-08-24T19:03:03.657Z,4.80
2017-08-24T19:05:31.157Z,9.40
2017-08-24T19:07:58.608Z,6.87
2017-08-24T19:10:26.096Z,3.53
2017-08-24T19:12:53.609Z,3.93
2017-08-24T19:15:21.078Z,8.23
2017-08-24T19:17:48.623Z,6.37
2017-08-24T19:20:16.126Z,5.83
2017-08-24T19:22:43.667Z,7.40
2017-08-24T19:25:11.172Z,4.22
2017-08-24T19:27:38.670Z,6.03
2017-08-24T19:30:06.121Z,5.40
2017-08-24T19:32:33.669Z,2.77
2017-08-24T19:35:01.150Z,4.20
2017-08-24T19:37:29.127Z,9.97
2017-08-24T19:39:56.644Z,5.13
2017-08-24T19:42:24.131Z,2.27
2017-08-24T19:44:52.166Z,7.47
2017-08-24T19:47:19.642Z,2.58
2017-08-24T19:49:47.228Z,3.00
2017-08-24T19:52:14.687Z,1.90
2017-08-24T19:54:42.151Z,3.43
2017-08-24T19:57:09.665Z,8.60
2017-08-24T19:59:37.150Z,3.72
2017-08-24T20:02:04.652Z,6.10
2017-08-24T20:04:32.130Z,5.00
2017-08-24T20:06:59.643Z,4.53
2017-08-24T20:09:27.123Z,8.90
2017-08-24T20:11:54.600Z,10.30
2017-08-24T20:14:22.117Z,8.13
2017-08-24T20:16:49.835Z,3.40
2017-08-24T20:19:17.294Z,4.23
2017-08-24T20:21:44.776Z,4.40
2017-08-24T20:24:12.251Z,6.00
2017-08-24T20:26:39.788Z,8.93
2017-08-24T20:29:07.295Z,3.97
2017-08-24T20:31:34.778Z,8.30
2017-08-24T20:34:02.304Z,3.00
2017-08-24T20:36:29.784Z,9.87
2017-08-24T20:38:57.265Z,4.70
2017-08-24T20:41:24.726Z,5.67
2017-08-24T20:43:52.609Z,4.77
2017-08-24T20:46:20.110Z,5.23
2017-08-24T20:48:47.576Z,4.57
2017-08-24T20:51:15.069Z,5.10
2017-08-24T20:53:42.518Z,9.23
2017-08-24T20:56:09.978Z,6.35
2017-08-24T20:58:37.492Z,6.33
2017-08-24T21:01:05.003Z,5.23
2017-08-24T21:03:33.475Z,7.80
2017-08-24T21:06:01.053Z,5.03
2017-08-24T21:08:28.506Z,3.23
2017-08-24T21:10:56.004Z,3.07
2017-08-24T21:13:23.466Z,3.70
2017-08-24T21:15:50.966Z,2.57
2017-08-24T21:18:18.417Z,5.57
2017-08-24T21:20:45.895Z,4.00
2017-08-24T21:23:13.398Z,3.53
2017-08-24T21:25:40.853Z,4.60
2017-08-24T21:28:08.358Z,3.47
2017-08-24T21:30:35.809Z,3.60
2017-08-24T21:33:03.302Z,2.37
2017-08-24T21:35:30.789Z,3.50
2017-08-24T21:37:58.538Z,2.20
2017-08-24T21:40:26.201Z,3.33
2017-08-24T21:42:53.712Z,2.20
2017-08-24T21:45:21.164Z,2.50
2017-08-24T21:47:48.688Z,3.27
2017-08-24T21:50:16.163Z,3.20
2017-08-24T21:52:43.694Z,2.27
2017-08-24T21:55:11.201Z,3.37
2017-08-24T21:57:38.686Z,3.70
2017-08-24T22:00:06.192Z,2.43
2017-08-24T22:02:33.666Z,1.93
2017-08-24T22:05:02.821Z,5.67
2017-08-24T22:07:30.370Z,5.90
2017-08-24T22:09:57.831Z,3.28
2017-08-24T22:12:25.353Z,3.30
2017-08-24T22:14:52.806Z,2.40
2017-08-24T22:17:20.282Z,3.45
2017-08-24T22:19:47.794Z,2.60
2017-08-24T22:22:15.318Z,9.03
2017-08-24T22:24:42.792Z,4.17
2017-08-24T22:27:10.446Z,6.35
2017-08-24T22:29:37.896Z,3.90
2017-08-24T22:32:05.360Z,3.13
2017-08-24T22:34:37.423Z,4.40
2017-08-24T22:37:04.883Z,2.90
2017-08-24T22:39:32.422Z,4.23
2017-08-24T22:41:59.894Z,2.30
2017-08-24T22:44:27.460Z,7.33
2017-08-24T22:46:54.908Z,4.80
2017-08-24T22:49:22.394Z,6.90
2017-08-24T22:51:49.923Z,6.27
2017-08-24T22:54:22.922Z,2.92
2017-08-24T22:56:55.932Z,11.25
2017-08-24T22:59:29.033Z,4.00
2017-08-24T23:02:02.107Z,5.10
2017-08-24T23:04:29.613Z,5.30
2017-08-24T23:06:57.078Z,3.70
2017-08-24T23:09:24.571Z,3.23
2017-08-24T23:11:52.047Z,5.33
2017-08-24T23:14:19.499Z,3.58
2017-08-24T23:16:46.973Z,2.27
2017-08-24T23:19:14.457Z,4.20
2017-08-24T23:21:41.937Z,2.40
2017-08-24T23:24:09.390Z,3.90
2017-08-24T23:26:36.869Z,3.83
2017-08-24T23:29:04.381Z,4.03
2017-08-24T23:31:31.908Z,8.60
2017-08-24T23:33:59.381Z,6.75
2017-08-24T23:36:26.879Z,3.57
2017-08-24T23:38:54.332Z,3.67
2017-08-24T23:41:21.798Z,2.42
2017-08-24T23:43:49.286Z,5.40
2017-08-24T23:46:16.769Z,2.30
2017-08-24T23:48:44.285Z,3.00
2017-08-24T23:51:11.758Z,3.70
2017-08-24T23:53:40.111Z,4.73
2017-08-24T23:56:07.563Z,4.27
2017-08-24T23:58:35.037Z,2.23
